Airport Name : Gary Chicago Intl

Other Name : Gary Chicago

ICAO : KGYY

IATA : GYY

FAA : GYY

Latitude : 41.616272

Longitude : -87.412788

Country : United States

Local Date and Time : 01 Dec 2021 08:40

 

TAF (Terminal Aerodrome Forecast)

KGYY 011125Z 0112/0212 16007KT P6SM SCT025 OVC050 TEMPO 0113/0116 -SHRA FM011700 20012KT P6SM BKN060 FM012200 21010KT P6SM SCT120 FM020800 22012KT P6SM SCT120 WS020/27045KT

 

METAR (METeorological Aerodrome Report)

KGYY 011345Z 15007KT 10SM SCT070 04/00 A3001

KGYY 011245Z 15007KT 10SM OVC090 04/00 A3001

KGYY 011145Z OVC080KT 10SM CLR 03/00 A3002

KGYY 011045Z 00000KT 10SM CLR 02/M00 A3004

To Charter a Jet Click here.